createdAt,value
2018-09-28T00:00:28.297Z,68.00
2018-09-28T00:01:28.432Z,67.91
2018-09-28T00:02:28.570Z,67.33
2018-09-28T00:03:28.748Z,67.24
2018-09-28T00:04:28.885Z,67.05
2018-09-28T00:05:29.030Z,67.14
2018-09-28T00:06:29.170Z,66.85
2018-09-28T00:07:29.330Z,67.33
2018-09-28T00:08:29.459Z,67.14
2018-09-28T00:09:29.604Z,67.24
2018-09-28T00:10:29.749Z,67.14
2018-09-28T00:11:29.889Z,67.33
2018-09-28T00:12:30.034Z,67.24
2018-09-28T00:13:30.177Z,67.05
2018-09-28T00:14:30.318Z,67.14
2018-09-28T00:15:30.459Z,66.95
2018-09-28T00:16:30.602Z,66.95
2018-09-28T00:17:30.746Z,67.14
2018-09-28T00:18:30.890Z,67.33
2018-09-28T00:19:31.037Z,67.05
2018-09-28T00:20:31.197Z,66.85
2018-09-28T00:21:31.349Z,67.14
2018-09-28T00:22:31.482Z,67.24
2018-09-28T00:23:31.654Z,67.71
2018-09-28T00:24:31.798Z,67.87
2018-09-28T00:25:31.953Z,67.87
2018-09-28T00:26:32.097Z,68.00
2018-09-28T00:27:32.238Z,68.44
2018-09-28T00:28:32.381Z,68.96
2018-09-28T00:29:32.531Z,69.15
2018-09-28T00:30:32.669Z,68.86
2018-09-28T00:31:32.810Z,68.92
2018-09-28T00:32:32.955Z,68.63
2018-09-28T00:33:33.109Z,68.63
2018-09-28T00:34:33.258Z,69.21
2018-09-28T00:35:33.399Z,69.21
2018-09-28T00:36:33.544Z,69.15
2018-09-28T00:37:33.686Z,69.31
2018-09-28T00:38:33.881Z,69.31
2018-09-28T00:39:34.809Z,69.02
2018-09-28T00:40:34.148Z,68.63
2018-09-28T00:41:34.306Z,68.54
2018-09-28T00:42:34.442Z,68.06
2018-09-28T00:43:34.602Z,68.26
2018-09-28T00:44:34.741Z,68.35
2018-09-28T00:45:35.813Z,68.82
2018-09-28T00:46:35.063Z,68.92
2018-09-28T00:47:35.210Z,69.11
2018-09-28T00:48:35.354Z,69.11
2018-09-28T00:49:35.537Z,69.21
2018-09-28T00:50:35.676Z,69.02
2018-09-28T00:51:35.822Z,69.02
2018-09-28T00:52:35.965Z,69.21
2018-09-28T00:53:36.105Z,68.44
2018-09-28T00:54:36.244Z,68.54
2018-09-28T00:55:36.394Z,69.02
2018-09-28T00:56:36.531Z,68.82
2018-09-28T00:57:36.675Z,68.82
2018-09-28T00:58:36.813Z,68.82
2018-09-28T00:59:36.956Z,69.21
2018-09-28T01:00:37.095Z,69.21
2018-09-28T01:01:37.249Z,69.40
2018-09-28T01:02:37.387Z,69.21
2018-09-28T01:03:37.529Z,69.21
2018-09-28T01:04:37.672Z,69.02
2018-09-28T01:05:37.820Z,69.02
2018-09-28T01:06:37.959Z,69.21
2018-09-28T01:07:38.104Z,69.02
2018-09-28T01:08:38.250Z,69.11
2018-09-28T01:09:38.390Z,68.63
2018-09-28T01:10:38.531Z,68.92
2018-09-28T01:11:38.674Z,68.73
2018-09-28T01:12:38.818Z,68.73
2018-09-28T01:13:39.814Z,68.88
2018-09-28T01:14:39.125Z,69.21
2018-09-28T01:15:39.265Z,69.49
2018-09-28T01:16:40.321Z,69.84
2018-09-28T01:17:39.534Z,69.37
2018-09-28T01:18:39.677Z,69.56
2018-09-28T01:19:39.805Z,69.40
2018-09-28T01:20:39.963Z,69.46
2018-09-28T01:21:40.154Z,69.27
2018-09-28T01:22:40.255Z,68.79
2018-09-28T01:23:40.397Z,68.79
2018-09-28T01:24:40.534Z,69.17
2018-09-28T01:25:40.701Z,68.98
2018-09-28T01:26:40.852Z,69.37
2018-09-28T01:27:41.002Z,69.17
2018-09-28T01:28:41.176Z,69.27
2018-09-28T01:29:41.323Z,69.37
2018-09-28T01:30:41.467Z,69.27
2018-09-28T01:31:41.620Z,68.88
2018-09-28T01:32:41.760Z,69.46
2018-09-28T01:33:41.905Z,70.22
2018-09-28T01:34:42.072Z,69.27
2018-09-28T01:35:42.222Z,70.03
2018-09-28T01:36:42.363Z,69.93
2018-09-28T01:37:42.510Z,69.84
2018-09-28T01:38:42.674Z,69.84
2018-09-28T01:39:42.807Z,69.84
2018-09-28T01:40:42.953Z,69.84
2018-09-28T01:41:43.149Z,69.56
2018-09-28T01:42:43.262Z,70.13
2018-09-28T01:43:43.408Z,70.03
2018-09-28T01:44:43.544Z,70.13
2018-09-28T01:45:43.713Z,70.13
2018-09-28T01:46:43.851Z,69.56
2018-09-28T01:47:43.998Z,69.46
2018-09-28T01:48:44.138Z,69.93
2018-09-28T01:49:44.283Z,70.22
2018-09-28T01:50:44.428Z,70.13
2018-09-28T01:51:44.570Z,69.84
2018-09-28T01:52:44.721Z,69.74
2018-09-28T01:53:44.867Z,70.22
2018-09-28T01:54:45.008Z,69.74
2018-09-28T01:55:45.148Z,69.84
2018-09-28T01:56:45.294Z,70.03
2018-09-28T01:57:45.431Z,69.56
2018-09-28T01:58:45.572Z,69.46
2018-09-28T01:59:45.719Z,69.27
2018-09-28T02:00:45.859Z,69.27
2018-09-28T02:01:46.000Z,69.93
2018-09-28T02:02:46.205Z,70.03
2018-09-28T02:03:46.225Z,69.81
2018-09-28T02:04:46.369Z,70.00
2018-09-28T02:05:46.512Z,69.81
2018-09-28T02:06:46.662Z,69.90
2018-09-28T02:07:47.815Z,69.84
2018-09-28T02:08:46.987Z,70.19
2018-09-28T02:09:47.128Z,69.90
2018-09-28T02:10:47.321Z,69.52
2018-09-28T02:11:47.460Z,69.33
2018-09-28T02:12:47.604Z,69.90
2018-09-28T02:13:47.748Z,69.81
2018-09-28T02:14:47.925Z,70.76
2018-09-28T02:15:48.083Z,70.57
2018-09-28T02:16:48.192Z,70.67
2018-09-28T02:17:48.330Z,70.38
2018-09-28T02:18:48.487Z,70.38
2018-09-28T02:19:48.632Z,70.47
2018-09-28T02:20:48.793Z,70.38
2018-09-28T02:21:48.922Z,70.47
2018-09-28T02:22:49.164Z,70.47
2018-09-28T02:23:49.133Z,70.09
2018-09-28T02:24:49.275Z,69.62
2018-09-28T02:25:49.457Z,69.43
2018-09-28T02:26:49.591Z,69.62
2018-09-28T02:27:49.737Z,69.43
2018-09-28T02:28:49.902Z,70.09
2018-09-28T02:29:50.040Z,69.81
2018-09-28T02:30:50.178Z,69.90
2018-09-28T02:31:50.324Z,69.43
2018-09-28T02:32:50.476Z,69.90
2018-09-28T02:33:50.614Z,69.62
2018-09-28T02:34:50.817Z,70.38
2018-09-28T02:35:50.886Z,70.67
2018-09-28T02:36:51.030Z,70.76
2018-09-28T02:37:51.166Z,70.38
2018-09-28T02:38:51.310Z,70.67
2018-09-28T02:39:51.452Z,70.38
2018-09-28T02:40:51.595Z,70.67
2018-09-28T02:41:51.736Z,70.67
2018-09-28T02:42:51.877Z,71.04
2018-09-28T02:43:52.018Z,70.86
2018-09-28T02:44:52.177Z,71.04
2018-09-28T02:45:52.307Z,70.47
2018-09-28T02:46:52.440Z,70.28
2018-09-28T02:47:52.606Z,70.38
2018-09-28T02:48:52.750Z,70.28
2018-09-28T02:49:52.895Z,70.57
2018-09-28T02:50:53.041Z,71.14
2018-09-28T02:51:53.175Z,70.76
2018-09-28T02:52:53.319Z,70.76
2018-09-28T02:53:53.461Z,70.95
2018-09-28T02:54:53.599Z,70.86
2018-09-28T02:55:53.740Z,71.62
2018-09-28T02:56:53.928Z,71.33
2018-09-28T02:57:54.028Z,71.33
2018-09-28T02:58:54.170Z,70.67
2018-09-28T02:59:54.318Z,71.23
2018-09-28T03:00:54.480Z,71.04
2018-09-28T03:01:54.618Z,70.95
2018-09-28T03:02:54.764Z,70.95
2018-09-28T03:03:55.833Z,70.86
2018-09-28T03:04:55.016Z,70.76
2018-09-28T03:05:55.153Z,71.01
2018-09-28T03:06:55.298Z,71.11
2018-09-28T03:07:55.434Z,71.33
2018-09-28T03:08:55.613Z,71.43
2018-09-28T03:09:55.737Z,70.92
2018-09-28T03:10:55.878Z,70.92
2018-09-28T03:11:56.018Z,71.14
2018-09-28T03:12:56.186Z,70.95
2018-09-28T03:13:56.302Z,71.23
2018-09-28T03:14:56.450Z,71.14
2018-09-28T03:15:56.605Z,70.67
2018-09-28T19:52:45.052Z,67.07
2018-09-28T19:53:45.191Z,66.88
2018-09-28T19:54:45.334Z,67.17
2018-09-28T19:55:45.529Z,67.07
2018-09-28T19:56:45.594Z,67.36
2018-09-28T19:57:45.753Z,67.93
2018-09-28T19:58:45.872Z,67.46
2018-09-28T19:59:46.018Z,67.65
2018-09-28T20:00:46.158Z,67.46
2018-09-28T20:01:46.295Z,67.93
2018-09-28T20:02:46.430Z,67.93
2018-09-28T20:03:46.599Z,67.83
2018-09-28T20:04:46.707Z,67.17
2018-09-28T20:05:47.441Z,66.78
2018-09-28T20:06:46.982Z,67.07
2018-09-28T20:07:47.091Z,67.07
2018-09-28T20:08:47.230Z,67.07
2018-09-28T20:09:47.372Z,67.17
2018-09-28T20:10:47.529Z,67.07
2018-09-28T20:11:47.665Z,66.88
2018-09-28T20:12:47.793Z,66.88
2018-09-28T20:13:47.933Z,66.98
2018-09-28T20:14:48.072Z,67.27
2018-09-28T20:15:48.207Z,67.14
2018-09-28T20:16:48.361Z,67.07
2018-09-28T20:17:48.498Z,67.17
2018-09-28T20:18:48.644Z,67.14
2018-09-28T20:19:48.763Z,67.14
2018-09-28T20:20:48.903Z,67.14
2018-09-28T20:21:49.034Z,67.23
2018-09-28T20:22:49.185Z,67.71
2018-09-28T20:23:49.305Z,67.71
2018-09-28T20:24:49.443Z,68.09
2018-09-28T20:25:49.652Z,68.18
2018-09-28T20:26:50.452Z,68.28
2018-09-28T20:29:22.179Z,68.09
2018-09-28T20:30:22.314Z,68.09
2018-09-28T20:31:22.459Z,68.38
2018-09-28T20:32:22.592Z,67.90
2018-09-28T20:33:22.725Z,67.42
2018-09-28T20:34:22.857Z,67.52
2018-09-28T20:35:22.993Z,67.61
2018-09-28T20:36:23.126Z,67.61
2018-09-28T20:37:23.259Z,67.71
2018-09-28T20:38:23.395Z,67.80
2018-09-28T20:39:23.526Z,68.28
2018-09-28T20:40:23.667Z,68.28
2018-09-28T20:41:23.805Z,68.18
2018-09-28T20:42:23.937Z,68.47
2018-09-28T20:43:24.072Z,68.47
2018-09-28T20:44:24.204Z,69.14
2018-09-28T20:45:24.332Z,69.14
2018-09-28T20:46:24.477Z,68.76
2018-09-28T20:47:24.613Z,69.62
2018-09-28T20:48:24.749Z,69.43
2018-09-28T20:49:24.891Z,69.62
2018-09-28T20:50:25.022Z,69.14
2018-09-28T20:51:25.155Z,68.76
2018-09-28T20:52:25.284Z,69.04
2018-09-28T20:53:25.428Z,69.33
2018-09-28T20:54:25.562Z,69.23
2018-09-28T20:55:25.707Z,69.33
2018-09-28T20:56:25.830Z,70.00
2018-09-28T20:57:25.967Z,69.90
2018-09-28T20:58:26.087Z,69.33
2018-09-28T20:59:26.240Z,69.04
2018-09-28T21:00:26.378Z,69.43
2018-09-28T21:01:26.515Z,69.33
2018-09-28T21:02:26.662Z,69.33
2018-09-28T21:03:26.797Z,69.33
2018-09-28T21:04:26.928Z,69.52
2018-09-28T21:05:27.064Z,69.81
2018-09-28T21:06:27.202Z,69.81
2018-09-28T21:07:27.367Z,69.48
2018-09-28T21:08:28.400Z,69.48
2018-09-28T21:11:00.319Z,69.20
2018-09-28T21:12:00.439Z,69.20
2018-09-28T21:13:00.568Z,69.39
2018-09-28T21:14:00.701Z,69.48
2018-09-28T21:15:00.853Z,69.77
2018-09-28T21:16:00.973Z,69.68
2018-09-28T21:17:01.108Z,70.06
2018-09-28T21:18:01.242Z,69.68
2018-09-28T21:19:01.387Z,69.77
2018-09-28T21:20:01.508Z,69.39
2018-09-28T21:21:01.636Z,69.77
2018-09-28T21:22:01.768Z,70.06
2018-09-28T21:23:01.997Z,69.58
2018-09-28T21:24:02.005Z,69.58
2018-09-28T21:25:02.139Z,69.58
2018-09-28T21:26:02.272Z,69.87
2018-09-28T21:27:02.427Z,69.77
2018-09-28T21:28:02.557Z,69.29
2018-09-28T21:29:02.753Z,69.87
2018-09-28T21:30:02.825Z,69.96
2018-09-28T21:31:02.972Z,69.58
2018-09-28T21:32:03.099Z,69.87
2018-09-28T21:33:03.234Z,69.96
2018-09-28T21:34:03.369Z,69.77
2018-09-28T21:35:03.511Z,69.93
2018-09-28T21:36:03.634Z,70.12
2018-09-28T21:37:03.767Z,69.58
2018-09-28T21:38:03.899Z,70.02
2018-09-28T21:39:04.047Z,69.45
2018-09-28T21:40:04.192Z,69.58
2018-09-28T21:41:04.330Z,70.02
2018-09-28T21:42:04.469Z,69.39
2018-09-28T21:43:04.625Z,69.64
2018-09-28T21:44:04.743Z,69.58
2018-09-28T21:45:04.883Z,70.02
2018-09-28T21:46:05.013Z,69.96
2018-09-28T21:47:05.171Z,69.93
2018-09-28T21:48:06.560Z,70.02
2018-09-28T21:49:05.590Z,69.93
2018-09-28T21:50:05.530Z,69.54
2018-09-28T21:51:06.729Z,70.02
2018-09-28T21:52:05.677Z,70.12
2018-09-28T21:53:05.807Z,70.50
2018-09-28T21:54:05.934Z,70.12
2018-09-28T21:55:06.075Z,70.50
2018-09-28T21:56:06.200Z,70.50
2018-09-28T21:57:06.344Z,70.59
2018-09-28T21:58:06.487Z,70.31
2018-09-28T21:59:06.621Z,70.40
2018-09-28T22:00:06.759Z,70.50
2018-09-28T22:01:06.905Z,70.59
2018-09-28T22:02:07.041Z,70.21
2018-09-28T22:03:07.178Z,70.50
2018-09-28T22:04:07.305Z,70.69
2018-09-28T22:05:07.433Z,70.88
2018-09-28T22:06:08.103Z,70.59
2018-09-28T22:07:07.761Z,70.40
2018-09-28T22:08:07.891Z,70.97
2018-09-28T22:09:08.589Z,71.26
2018-09-28T22:10:08.130Z,70.88
2018-09-28T22:11:08.271Z,70.97
2018-09-28T22:12:08.401Z,70.69
2018-09-28T22:13:08.548Z,70.21
2018-09-28T22:14:08.720Z,70.50
2018-09-28T22:15:08.805Z,70.78
2018-09-28T22:16:08.940Z,70.88
2018-09-28T22:17:09.075Z,70.69
2018-09-28T22:18:09.209Z,71.17
2018-09-28T22:19:09.343Z,70.40
2018-09-28T22:20:09.472Z,71.07
2018-09-28T22:21:09.599Z,71.07
2018-09-28T22:22:09.732Z,70.97
2018-09-28T22:23:09.867Z,70.40
2018-09-28T22:24:10.006Z,70.21
2018-09-28T22:25:10.134Z,70.69
2018-09-28T22:26:10.282Z,70.69
2018-09-28T22:27:10.412Z,70.12
2018-09-28T22:28:10.547Z,70.12
2018-09-28T22:29:10.689Z,70.40
2018-09-28T22:30:10.823Z,70.27
2018-09-28T22:31:10.955Z,69.99
2018-09-28T22:32:11.087Z,70.56
2018-09-28T22:33:11.227Z,70.37
2018-09-28T22:34:11.354Z,70.56
2018-09-28T22:35:11.496Z,70.27
2018-09-28T22:36:11.638Z,70.18
2018-09-28T22:37:11.772Z,70.94
2018-09-28T22:38:11.905Z,70.75
2018-09-28T22:39:12.041Z,71.42
2018-09-28T22:40:12.173Z,71.61
2018-09-28T22:41:12.304Z,72.46
2018-09-28T22:42:12.442Z,71.70
2018-09-28T22:43:12.572Z,71.51
2018-09-28T22:44:12.709Z,71.42
2018-09-28T22:45:12.897Z,71.42
2018-09-28T22:46:13.029Z,71.51
2018-09-28T22:47:13.159Z,71.51
2018-09-28T22:48:13.292Z,71.51
2018-09-28T22:49:13.458Z,71.61
2018-09-28T22:50:13.596Z,72.17
2018-09-28T22:51:13.728Z,72.08
2018-09-28T22:52:13.861Z,72.08
2018-09-28T22:53:14.005Z,72.17
2018-09-28T22:54:14.133Z,71.80
2018-09-28T22:55:14.270Z,72.17
2018-09-28T22:56:14.400Z,71.03
2018-09-28T22:57:14.541Z,71.13
2018-09-28T22:58:14.676Z,71.42
2018-09-28T22:59:14.817Z,71.22
2018-09-28T23:00:14.974Z,71.32
2018-09-28T23:01:15.098Z,71.13
2018-09-28T23:02:15.236Z,70.84
2018-09-28T23:03:15.362Z,70.65
2018-09-28T23:04:15.493Z,70.84
2018-09-28T23:05:15.629Z,70.94
2018-09-28T23:06:15.765Z,70.84
2018-09-28T23:07:15.956Z,71.03
2018-09-28T23:08:15.966Z,70.84
2018-09-28T23:09:16.092Z,70.84
2018-09-28T23:10:16.232Z,70.75
2018-09-28T23:11:16.358Z,71.13
2018-09-28T23:12:16.494Z,70.84
2018-09-28T23:13:16.625Z,71.86
2018-09-28T23:14:16.803Z,71.61
2018-09-28T23:15:16.913Z,71.67
2018-09-28T23:16:17.040Z,71.67
2018-09-28T23:17:17.181Z,71.67
2018-09-28T23:18:17.341Z,71.95
2018-09-28T23:19:17.464Z,71.57
2018-09-28T23:20:17.592Z,71.47
2018-09-28T23:21:17.757Z,71.57
2018-09-28T23:22:17.919Z,71.95
2018-09-28T23:23:18.028Z,71.86
2018-09-28T23:24:18.190Z,71.57
2018-09-28T23:25:18.358Z,71.57
2018-09-28T23:26:18.479Z,70.90
2018-09-28T23:27:18.615Z,70.81
2018-09-28T23:28:18.744Z,71.19
2018-09-28T23:29:18.922Z,71.47
2018-09-28T23:30:19.024Z,70.90
2018-09-28T23:31:19.161Z,71.09
2018-09-28T23:32:19.303Z,71.09
2018-09-28T23:33:19.434Z,71.00
2018-09-28T23:34:19.573Z,71.09
2018-09-28T23:35:19.704Z,71.00
2018-09-28T23:36:19.839Z,71.28
2018-09-28T23:37:19.979Z,71.57
2018-09-28T23:38:20.103Z,71.86
2018-09-28T23:39:20.231Z,71.76
2018-09-28T23:40:20.375Z,71.38
2018-09-28T23:41:20.489Z,71.47
2018-09-28T23:42:20.629Z,71.67
2018-09-28T23:43:20.769Z,72.24
2018-09-28T23:44:20.900Z,72.42
2018-09-28T23:45:21.028Z,72.33
2018-09-28T23:46:21.164Z,72.52
2018-09-28T23:47:21.293Z,72.14
2018-09-28T23:48:21.426Z,72.24
2018-09-28T23:49:21.556Z,72.14
2018-09-28T23:50:21.693Z,72.05
2018-09-28T23:51:21.826Z,72.52
2018-09-28T23:52:21.963Z,71.76
2018-09-28T23:53:22.149Z,72.05
2018-09-28T23:54:22.289Z,72.71
2018-09-28T23:55:22.426Z,72.42
2018-09-28T23:56:22.558Z,72.24
2018-09-28T23:57:22.691Z,72.33
2018-09-28T23:58:22.827Z,72.81
2018-09-28T23:59:22.959Z,73.00
